createdAt,value
2022-10-28T00:00:56.664Z,4.39
2022-10-28T00:03:23.664Z,4.33
2022-10-28T00:05:50.676Z,4.35
2022-10-28T00:08:25.525Z,4.38
2022-10-28T00:11:14.552Z,4.17
2022-10-28T00:13:43.338Z,4.38
2022-10-28T00:16:16.187Z,4.37
2022-10-28T00:18:43.982Z,4.35
2022-10-28T00:21:14.502Z,4.34
2022-10-28T00:23:42.185Z,4.37
2022-10-28T00:26:11.992Z,4.40
2022-10-28T00:28:44.004Z,4.44
2022-10-28T00:31:12.655Z,4.44
2022-10-28T00:33:39.734Z,4.45
2022-10-28T00:36:22.214Z,4.46
2022-10-28T00:38:51.239Z,4.50
2022-10-28T00:41:21.133Z,4.53
2022-10-28T00:43:53.414Z,4.51
2022-10-28T00:46:23.364Z,4.53
2022-10-28T00:48:57.611Z,4.50
2022-10-28T00:51:26.671Z,4.48
2022-10-28T00:53:56.264Z,4.51
2022-10-28T00:56:28.023Z,4.47
2022-10-28T00:58:57.811Z,4.51
2022-10-28T01:01:24.939Z,4.43
2022-10-28T01:03:52.228Z,4.43
2022-10-28T01:06:20.257Z,4.45
2022-10-28T01:08:47.125Z,4.47
2022-10-28T01:11:49.198Z,4.52
2022-10-28T01:14:37.976Z,4.52
2022-10-28T01:17:42.799Z,4.50
2022-10-28T01:20:28.451Z,4.50
2022-10-28T01:23:01.331Z,4.45
2022-10-28T01:25:49.337Z,4.45
2022-10-28T01:28:53.221Z,4.49
2022-10-28T01:31:26.380Z,4.49
2022-10-28T01:34:29.547Z,4.50
2022-10-28T01:37:25.625Z,4.52
2022-10-28T01:40:16.119Z,4.51
2022-10-28T01:42:53.439Z,4.55
2022-10-28T01:45:34.545Z,4.51
2022-10-28T01:48:05.386Z,4.55
2022-10-28T01:50:48.101Z,4.56
2022-10-28T01:53:19.431Z,4.59
2022-10-28T01:55:50.179Z,4.57
2022-10-28T01:58:21.871Z,4.58
2022-10-28T02:00:50.111Z,4.58
2022-10-28T02:03:17.622Z,4.60
2022-10-28T02:05:50.017Z,4.62
2022-10-28T02:08:23.346Z,4.61
2022-10-28T02:11:11.901Z,4.66
2022-10-28T02:13:57.360Z,4.66
2022-10-28T02:16:24.205Z,4.65
2022-10-28T02:19:05.116Z,4.66
2022-10-28T02:21:44.745Z,4.66
2022-10-28T02:24:21.019Z,4.67
2022-10-28T02:26:56.350Z,4.68
2022-10-28T02:29:31.252Z,4.67
2022-10-28T02:32:07.441Z,4.65
2022-10-28T02:34:39.268Z,4.63
2022-10-28T02:37:13.446Z,4.54
2022-10-28T02:39:44.657Z,4.73
2022-10-28T02:42:21.851Z,4.70
2022-10-28T02:44:54.396Z,4.75
2022-10-28T02:47:26.768Z,4.76
2022-10-28T02:49:59.299Z,4.83
2022-10-28T02:52:30.032Z,4.81
2022-10-28T02:55:06.757Z,4.86
2022-10-28T02:57:36.418Z,4.77
2022-10-28T03:00:09.850Z,4.80
2022-10-28T03:02:37.636Z,4.78
2022-10-28T03:05:06.424Z,4.74
2022-10-28T03:07:33.632Z,4.75
2022-10-28T03:10:00.619Z,4.69
2022-10-28T03:12:27.571Z,4.77
2022-10-28T03:14:54.518Z,4.79
2022-10-28T03:17:21.537Z,4.79
2022-10-28T03:19:48.481Z,4.72
2022-10-28T03:22:15.517Z,4.77
2022-10-28T03:24:42.473Z,4.74
2022-10-28T03:27:34.146Z,4.69
2022-10-28T03:30:01.211Z,4.69
2022-10-28T03:32:28.134Z,4.72
2022-10-28T03:34:57.437Z,4.71
2022-10-28T03:37:24.301Z,4.64
2022-10-28T03:39:51.330Z,4.66
2022-10-28T03:42:18.311Z,4.53
2022-10-28T03:44:45.225Z,4.54
2022-10-28T03:47:12.174Z,4.54
2022-10-28T03:49:39.097Z,4.44
2022-10-28T03:52:05.977Z,4.50
2022-10-28T03:54:32.866Z,4.47
2022-10-28T03:56:59.768Z,4.52
2022-10-28T03:59:26.804Z,4.50
2022-10-28T04:01:53.805Z,4.54
2022-10-28T04:04:20.918Z,4.52
2022-10-28T04:06:47.926Z,4.59
2022-10-28T04:09:14.961Z,4.64
2022-10-28T04:11:41.965Z,4.66
2022-10-28T04:14:08.891Z,4.68
2022-10-28T04:16:35.750Z,4.69
2022-10-28T04:19:04.570Z,4.71
2022-10-28T04:21:31.449Z,4.57
2022-10-28T04:23:58.614Z,4.74
2022-10-28T04:26:25.622Z,4.70
2022-10-28T04:28:52.482Z,4.75
2022-10-28T04:31:19.346Z,4.76
2022-10-28T04:33:46.333Z,4.80
2022-10-28T04:36:13.313Z,4.79
2022-10-28T04:38:40.260Z,4.81
2022-10-28T04:41:07.240Z,4.84
2022-10-28T04:43:34.215Z,4.82
2022-10-28T04:46:06.096Z,4.89
2022-10-28T04:48:51.474Z,4.90
2022-10-28T04:51:20.110Z,4.91
2022-10-28T04:53:47.078Z,4.92
2022-10-28T04:56:16.400Z,4.96
2022-10-28T04:58:43.447Z,4.96
2022-10-28T05:01:11.221Z,4.91
2022-10-28T05:03:38.357Z,4.97
2022-10-28T05:06:05.456Z,4.96
2022-10-28T05:08:32.503Z,4.97
2022-10-28T05:10:59.525Z,5.04
2022-10-28T05:13:26.528Z,5.05
2022-10-28T05:15:53.587Z,5.05
2022-10-28T05:18:20.506Z,5.15
2022-10-28T05:20:47.516Z,5.17
2022-10-28T05:23:14.425Z,5.20
2022-10-28T05:25:42.916Z,5.17
2022-10-28T05:28:09.868Z,5.19
2022-10-28T05:30:45.883Z,5.22
2022-10-28T05:33:15.981Z,5.21
2022-10-28T05:35:43.688Z,5.19
2022-10-28T05:38:10.666Z,5.21
2022-10-28T05:40:37.600Z,5.17
2022-10-28T05:43:06.516Z,5.25
2022-10-28T05:45:33.939Z,5.27
2022-10-28T05:48:00.984Z,5.31
2022-10-28T05:50:28.653Z,5.32
2022-10-28T05:52:57.261Z,5.31
2022-10-28T05:55:27.951Z,5.36
2022-10-28T05:57:56.006Z,5.39
2022-10-28T06:00:25.537Z,5.36
2022-10-28T06:02:53.028Z,5.41
2022-10-28T06:05:20.885Z,5.44
2022-10-28T06:07:47.913Z,5.49
2022-10-28T06:10:15.687Z,5.55
2022-10-28T06:12:41.231Z,5.62
2022-10-28T06:15:23.873Z,5.75
2022-10-28T06:18:02.006Z,5.81
2022-10-28T06:20:29.167Z,5.82
2022-10-28T06:22:56.416Z,5.70
2022-10-28T06:25:25.858Z,5.80
2022-10-28T06:27:55.078Z,5.76
2022-10-28T06:30:24.163Z,6.06
2022-10-28T06:32:51.336Z,6.07
2022-10-28T06:35:18.427Z,6.12
2022-10-28T06:37:45.505Z,6.06
2022-10-28T06:40:12.486Z,6.07
2022-10-28T06:42:39.537Z,6.05
2022-10-28T06:45:06.815Z,6.00
2022-10-28T06:47:39.073Z,6.07
2022-10-28T06:50:08.895Z,6.07
2022-10-28T06:52:38.744Z,6.15
2022-10-28T06:55:06.501Z,6.21
2022-10-28T06:57:33.602Z,6.26
2022-10-28T07:00:00.654Z,6.27
2022-10-28T07:02:27.606Z,6.33
2022-10-28T07:04:54.538Z,6.33
2022-10-28T07:07:21.691Z,6.38
2022-10-28T07:09:48.861Z,6.51
2022-10-28T07:12:16.076Z,6.65
2022-10-28T07:14:43.812Z,6.78
2022-10-28T07:17:11.121Z,6.88
2022-10-28T07:19:38.369Z,6.99
2022-10-28T07:22:05.700Z,6.98
2022-10-28T07:24:33.107Z,7.09
2022-10-28T07:27:00.668Z,7.14
2022-10-28T07:29:27.899Z,7.12
2022-10-28T07:31:57.559Z,7.23
2022-10-28T07:34:27.160Z,7.24
2022-10-28T07:36:56.806Z,7.21
2022-10-28T07:39:24.815Z,7.19
2022-10-28T07:41:51.967Z,7.30
2022-10-28T07:44:19.461Z,7.25
2022-10-28T07:46:47.558Z,7.20
2022-10-28T07:49:15.087Z,7.36
2022-10-28T07:51:42.058Z,7.53
2022-10-28T07:54:09.222Z,7.63
2022-10-28T07:56:36.176Z,7.72
2022-10-28T07:59:03.217Z,7.78
2022-10-28T08:01:30.568Z,7.91
2022-10-28T08:03:57.687Z,7.96
2022-10-28T08:06:24.629Z,8.00
2022-10-28T08:08:55.043Z,8.11
2022-10-28T08:11:23.919Z,8.16
2022-10-28T08:13:52.046Z,8.17
2022-10-28T08:16:19.861Z,8.05
2022-10-28T08:18:46.937Z,8.14
2022-10-28T08:21:18.669Z,8.17
2022-10-28T08:23:47.207Z,8.17
2022-10-28T08:26:15.902Z,8.17
2022-10-28T08:28:43.527Z,8.22
2022-10-28T08:31:12.537Z,8.10
2022-10-28T08:33:45.539Z,7.93
2022-10-28T08:36:14.711Z,7.96
2022-10-28T08:38:45.736Z,8.23
2022-10-28T08:41:36.327Z,8.19
2022-10-28T08:44:18.953Z,8.34
2022-10-28T08:47:03.198Z,8.37
2022-10-28T08:49:34.038Z,8.27
2022-10-28T08:52:38.991Z,8.52
2022-10-28T08:55:19.157Z,8.62
2022-10-28T08:58:14.106Z,8.74
2022-10-28T09:00:47.315Z,8.76
2022-10-28T09:03:28.507Z,8.82
2022-10-28T09:06:07.703Z,8.98
2022-10-28T09:08:39.367Z,9.03
2022-10-28T09:11:34.295Z,9.13
2022-10-28T09:14:24.362Z,9.20
2022-10-28T09:17:09.368Z,9.24
2022-10-28T09:19:48.405Z,9.21
2022-10-28T09:22:29.766Z,9.24
2022-10-28T09:25:34.554Z,9.30
2022-10-28T09:28:16.682Z,9.35
2022-10-28T09:30:46.461Z,9.34
2022-10-28T09:33:35.705Z,9.61
2022-10-28T09:36:06.310Z,9.74
2022-10-28T09:38:35.909Z,9.82
2022-10-28T09:41:02.845Z,9.88
2022-10-28T09:43:43.043Z,9.95
2022-10-28T09:46:15.944Z,9.98
2022-10-28T09:48:55.816Z,10.05
2022-10-28T09:51:38.046Z,10.09
2022-10-28T09:54:06.900Z,10.11
2022-10-28T09:56:33.840Z,10.06
2022-10-28T09:59:03.231Z,9.94
2022-10-28T10:01:38.201Z,9.89
2022-10-28T10:04:26.247Z,9.81
2022-10-28T10:06:57.943Z,9.78
2022-10-28T10:09:30.723Z,9.69
2022-10-28T10:12:10.949Z,9.62
2022-10-28T10:14:56.610Z,9.61
2022-10-28T10:17:29.908Z,9.67
2022-10-28T10:20:16.489Z,9.75
2022-10-28T10:22:45.494Z,9.79
2022-10-28T10:25:18.779Z,9.86
2022-10-28T10:27:57.858Z,9.91
2022-10-28T10:30:39.347Z,9.91
2022-10-28T10:33:24.139Z,9.94
2022-10-28T10:36:21.243Z,10.04
2022-10-28T10:38:54.552Z,10.02
2022-10-28T10:41:42.934Z,10.11
2022-10-28T10:44:22.232Z,10.14
2022-10-28T10:46:55.431Z,10.15
2022-10-28T10:49:26.281Z,10.12
2022-10-28T10:51:57.327Z,10.11
2022-10-28T10:54:30.607Z,10.09
2022-10-28T10:57:20.047Z,10.08
2022-10-28T10:59:51.631Z,9.83
2022-10-28T11:02:30.449Z,9.80
2022-10-28T11:05:03.850Z,9.93
2022-10-28T11:07:32.999Z,9.99
2022-10-28T11:10:01.217Z,9.98
2022-10-28T11:12:40.670Z,10.04
2022-10-28T11:15:19.487Z,10.07
2022-10-28T11:18:20.960Z,10.11
2022-10-28T11:20:54.660Z,10.08
2022-10-28T11:23:30.953Z,10.18
2022-10-28T11:26:06.138Z,10.02
2022-10-28T11:29:08.867Z,10.10
2022-10-28T11:31:46.439Z,10.17
2022-10-28T11:34:57.784Z,10.02
2022-10-28T11:37:33.918Z,10.19
2022-10-28T11:40:06.981Z,10.18
2022-10-28T11:43:21.761Z,10.13
2022-10-28T11:46:05.717Z,10.14
2022-10-28T11:48:41.866Z,10.22
2022-10-28T11:51:31.306Z,10.22
2022-10-28T11:54:05.278Z,10.19
2022-10-28T11:56:40.125Z,10.16
2022-10-28T11:59:24.058Z,10.13
2022-10-28T12:02:01.277Z,10.17
2022-10-28T12:04:37.137Z,10.09
2022-10-28T12:07:32.122Z,10.05
2022-10-28T12:10:51.846Z,10.02
2022-10-28T12:13:37.272Z,9.99
2022-10-28T12:16:20.743Z,9.94
2022-10-28T12:19:18.562Z,9.76
2022-10-28T12:22:02.845Z,9.91
2022-10-28T12:24:35.171Z,9.71
2022-10-28T12:27:17.005Z,9.82
2022-10-28T12:29:50.164Z,9.82
2022-10-28T12:32:29.864Z,9.73
2022-10-28T12:35:06.719Z,9.85
2022-10-28T12:37:48.536Z,9.72
2022-10-28T12:40:49.518Z,9.80
2022-10-28T12:43:27.272Z,9.75
2022-10-28T12:45:56.550Z,9.75
2022-10-28T12:48:39.635Z,9.73
2022-10-28T12:51:35.953Z,9.65
2022-10-28T12:54:16.561Z,9.70
2022-10-28T12:56:53.257Z,9.71
2022-10-28T12:59:44.301Z,9.73
2022-10-28T13:02:20.289Z,9.68
2022-10-28T13:04:47.870Z,9.67
2022-10-28T13:07:44.284Z,9.75
2022-10-28T13:10:37.082Z,9.74
2022-10-28T13:13:38.350Z,9.75
2022-10-28T13:16:20.125Z,9.70
2022-10-28T13:19:21.339Z,9.67
2022-10-28T13:22:16.367Z,9.65
2022-10-28T13:24:46.172Z,9.59
2022-10-28T13:27:14.729Z,9.51
2022-10-28T13:29:44.148Z,9.52
2022-10-28T13:32:41.251Z,9.54
2022-10-28T13:35:16.441Z,9.52
2022-10-28T13:37:47.706Z,9.44
2022-10-28T13:40:28.688Z,9.45
2022-10-28T13:42:56.170Z,9.43
2022-10-28T13:45:52.330Z,9.44
2022-10-28T13:49:17.818Z,9.41
2022-10-28T13:51:46.891Z,9.23
2022-10-28T13:54:52.839Z,9.36
2022-10-28T13:57:29.057Z,9.34
2022-10-28T14:00:01.532Z,9.25
2022-10-28T14:02:46.265Z,9.31
2022-10-28T14:05:16.037Z,9.31
2022-10-28T14:08:07.401Z,9.24
2022-10-28T14:10:38.383Z,9.26
2022-10-28T14:15:49.913Z,9.23
2022-10-28T14:18:42.458Z,9.21
2022-10-28T14:21:06.909Z,9.23
2022-10-28T14:23:33.805Z,9.22
2022-10-28T14:26:05.974Z,9.20
2022-10-28T14:28:32.842Z,9.21
2022-10-28T14:31:11.952Z,9.21
2022-10-28T14:33:41.989Z,9.20
2022-10-28T14:36:21.875Z,9.15
2022-10-28T14:39:14.070Z,9.14
2022-10-28T14:41:40.981Z,9.10
2022-10-28T14:44:17.433Z,9.06
2022-10-28T14:47:07.055Z,9.06
2022-10-28T14:49:37.043Z,8.92
2022-10-28T14:52:13.554Z,9.00
2022-10-28T14:54:56.074Z,8.97
2022-10-28T14:57:33.913Z,8.92
2022-10-28T15:00:06.915Z,8.90
2022-10-28T15:02:37.896Z,8.91
2022-10-28T15:05:14.127Z,8.88
2022-10-28T15:07:42.113Z,8.88
2022-10-28T15:10:22.359Z,8.88
2022-10-28T15:12:50.522Z,8.86
2022-10-28T15:15:32.396Z,8.85
2022-10-28T15:18:00.520Z,8.84
2022-10-28T15:20:33.915Z,8.84
2022-10-28T15:23:23.825Z,8.82
2022-10-28T15:26:07.588Z,8.80
2022-10-28T15:28:34.778Z,8.81
2022-10-28T15:31:04.601Z,8.80
2022-10-28T15:33:42.430Z,8.82
2022-10-28T15:36:17.533Z,8.79
2022-10-28T15:38:48.600Z,8.78
2022-10-28T15:41:21.832Z,8.77
2022-10-28T15:44:00.363Z,8.78
2022-10-28T15:46:28.748Z,8.71
2022-10-28T15:49:00.656Z,8.73
2022-10-28T15:51:28.346Z,8.71
2022-10-28T15:54:10.537Z,8.69
2022-10-28T15:56:58.050Z,8.71
2022-10-28T15:59:25.894Z,8.61
2022-10-28T16:01:56.399Z,8.66
2022-10-28T16:04:23.408Z,8.70
2022-10-28T16:06:56.888Z,8.66
2022-10-28T16:09:26.874Z,8.66
2022-10-28T16:11:57.720Z,8.71
2022-10-28T16:14:44.144Z,8.71
2022-10-28T16:17:19.244Z,8.70
2022-10-28T16:20:17.082Z,8.73
2022-10-28T16:22:46.670Z,8.69
2022-10-28T16:25:16.502Z,8.72
2022-10-28T16:27:43.721Z,8.69
2022-10-28T16:30:11.360Z,8.68
2022-10-28T16:32:41.010Z,8.77
2022-10-28T16:35:18.465Z,8.79
2022-10-28T16:37:49.363Z,8.80
2022-10-28T16:43:05.221Z,8.78
2022-10-28T16:45:32.206Z,8.83
2022-10-28T16:47:59.213Z,8.79
2022-10-28T16:50:26.447Z,8.80
2022-10-28T16:52:56.262Z,8.84
2022-10-28T16:55:23.491Z,8.81
2022-10-28T16:57:50.608Z,8.85
2022-10-28T17:00:18.221Z,8.90
2022-10-28T17:02:46.992Z,8.87
2022-10-28T17:05:19.976Z,8.88
2022-10-28T17:07:47.267Z,8.93
2022-10-28T17:10:15.376Z,8.78
2022-10-28T17:12:42.477Z,8.77
2022-10-28T17:15:13.185Z,8.89
2022-10-28T17:17:40.514Z,8.92
2022-10-28T17:20:08.218Z,8.90
2022-10-28T17:22:35.432Z,8.92
2022-10-28T17:25:02.568Z,8.76
2022-10-28T17:27:29.863Z,8.99
2022-10-28T17:29:57.127Z,9.02
2022-10-28T17:32:24.638Z,9.02
2022-10-28T17:34:51.923Z,8.92
2022-10-28T17:37:19.113Z,8.97
2022-10-28T17:39:46.423Z,8.92
2022-10-28T17:42:13.642Z,8.97
2022-10-28T17:44:40.759Z,9.05
2022-10-28T17:47:07.675Z,9.02
2022-10-28T17:49:36.611Z,8.84
2022-10-28T17:52:03.718Z,9.01
2022-10-28T17:54:30.741Z,9.04
2022-10-28T17:56:57.772Z,9.05
2022-10-28T17:59:24.839Z,8.97
2022-10-28T18:01:51.933Z,9.04
2022-10-28T18:04:20.319Z,9.04
2022-10-28T18:06:47.420Z,8.98
2022-10-28T18:09:14.736Z,9.04
2022-10-28T18:11:44.561Z,9.03
2022-10-28T18:14:11.600Z,9.00
2022-10-28T18:16:38.545Z,9.00
2022-10-28T18:19:07.007Z,8.99
2022-10-28T18:21:34.727Z,9.07
2022-10-28T18:24:05.377Z,9.03
2022-10-28T18:26:34.206Z,9.07
2022-10-28T18:29:04.227Z,9.00
2022-10-28T18:31:34.754Z,9.00
2022-10-28T18:34:02.183Z,9.06
2022-10-28T18:36:34.563Z,8.98
2022-10-28T18:39:04.084Z,9.05
2022-10-28T18:41:32.244Z,8.96
2022-10-28T18:44:01.433Z,9.04
2022-10-28T18:46:29.616Z,9.07
2022-10-28T18:51:28.212Z,9.03
2022-10-28T18:53:56.720Z,9.02
2022-10-28T18:56:27.202Z,9.08
2022-10-28T18:58:55.322Z,9.07
2022-10-28T19:01:25.920Z,9.11
2022-10-28T19:03:55.403Z,9.12
2022-10-28T19:06:22.890Z,9.07
2022-10-28T19:08:55.064Z,9.10
2022-10-28T19:11:25.799Z,9.07
2022-10-28T19:13:52.925Z,8.90
2022-10-28T19:16:19.954Z,9.12
2022-10-28T19:18:46.934Z,8.97
2022-10-28T19:21:15.782Z,9.10
2022-10-28T19:23:44.292Z,9.12
2022-10-28T19:26:16.289Z,9.14
2022-10-28T19:28:49.051Z,9.07
2022-10-28T19:31:24.155Z,9.00
2022-10-28T19:33:55.225Z,8.97
2022-10-28T19:36:47.720Z,9.12
2022-10-28T19:39:14.844Z,8.99
2022-10-28T19:41:43.494Z,9.13
2022-10-28T19:44:10.817Z,9.07
2022-10-28T19:46:47.902Z,9.09
2022-10-28T19:49:15.570Z,9.18
2022-10-28T19:51:42.729Z,9.05
2022-10-28T19:54:13.727Z,9.21
2022-10-28T19:56:52.668Z,9.15
2022-10-28T19:59:21.311Z,9.25
2022-10-28T20:01:50.186Z,9.27
2022-10-28T20:04:25.320Z,9.19
2022-10-28T20:06:53.084Z,9.14
2022-10-28T20:09:35.006Z,9.21
2022-10-28T20:12:03.959Z,9.17
2022-10-28T20:14:32.718Z,9.18
2022-10-28T20:17:10.380Z,9.18
2022-10-28T20:19:45.803Z,9.15
2022-10-28T20:22:13.120Z,9.16
2022-10-28T20:24:40.457Z,9.36
2022-10-28T20:27:08.895Z,9.29
2022-10-28T20:29:36.434Z,9.34
2022-10-28T20:32:04.197Z,9.37
2022-10-28T20:34:31.440Z,9.29
2022-10-28T20:36:58.596Z,9.18
2022-10-28T20:39:26.434Z,9.20
2022-10-28T20:42:05.476Z,9.26
2022-10-28T20:44:33.185Z,9.21
2022-10-28T20:47:00.407Z,9.19
2022-10-28T20:49:37.344Z,9.36
2022-10-28T20:52:07.837Z,9.29
2022-10-28T20:54:34.975Z,9.32
2022-10-28T20:57:02.105Z,9.36
2022-10-28T20:59:29.350Z,9.30
2022-10-28T21:01:56.834Z,9.29
2022-10-28T21:04:24.233Z,9.31
2022-10-28T21:06:51.399Z,9.26
2022-10-28T21:09:20.718Z,9.36
2022-10-28T21:11:47.810Z,9.35
2022-10-28T21:14:14.968Z,9.37
2022-10-28T21:16:42.030Z,9.47
2022-10-28T21:19:08.954Z,9.47
2022-10-28T21:21:35.869Z,9.45
2022-10-28T21:24:03.857Z,9.40
2022-10-28T21:26:30.785Z,9.44
2022-10-28T21:28:57.739Z,9.43
2022-10-28T21:31:25.337Z,9.43
2022-10-28T21:33:53.523Z,9.43
2022-10-28T21:36:22.433Z,9.32
2022-10-28T21:38:53.404Z,9.42
2022-10-28T21:41:20.967Z,9.36
2022-10-28T21:43:50.383Z,9.40
2022-10-28T21:46:19.141Z,9.37
2022-10-28T21:48:46.105Z,9.39
2022-10-28T21:51:15.379Z,9.41
2022-10-28T21:53:44.255Z,9.37
2022-10-28T21:56:17.508Z,9.42
2022-10-28T21:58:47.086Z,9.44
2022-10-28T22:01:22.585Z,9.47
2022-10-28T22:03:51.418Z,9.43
2022-10-28T22:06:18.458Z,9.47
2022-10-28T22:08:45.450Z,9.34
2022-10-28T22:11:19.023Z,9.47
2022-10-28T22:13:46.338Z,9.46
2022-10-28T22:16:16.517Z,9.42
2022-10-28T22:18:44.311Z,9.44
2022-10-28T22:21:14.393Z,9.41
2022-10-28T22:23:41.839Z,9.45
2022-10-28T22:26:11.786Z,9.46
2022-10-28T22:28:39.163Z,9.45
2022-10-28T22:31:08.529Z,9.51
2022-10-28T22:33:36.216Z,9.52
2022-10-28T22:36:14.862Z,9.54
2022-10-28T22:38:42.371Z,9.47
2022-10-28T22:41:24.404Z,9.52
2022-10-28T22:43:53.958Z,9.49
2022-10-28T22:46:21.980Z,9.52
2022-10-28T22:48:49.601Z,9.50
2022-10-28T22:51:17.140Z,9.45
2022-10-28T22:53:44.778Z,9.52
2022-10-28T22:56:17.665Z,9.53
2022-10-28T22:58:44.751Z,9.53
2022-10-28T23:01:14.728Z,9.53
2022-10-28T23:03:44.540Z,9.48
2022-10-28T23:06:13.367Z,9.47
2022-10-28T23:08:42.199Z,9.49
2022-10-28T23:11:13.807Z,9.52
2022-10-28T23:13:40.935Z,9.45
2022-10-28T23:16:11.754Z,9.52
2022-10-28T23:18:39.230Z,9.48
2022-10-28T23:21:25.463Z,9.54
2022-10-28T23:23:56.963Z,9.48
2022-10-28T23:26:24.532Z,9.53
2022-10-28T23:28:53.827Z,9.55
2022-10-28T23:31:21.829Z,9.54
2022-10-28T23:33:49.230Z,9.53
2022-10-28T23:36:16.797Z,9.57
2022-10-28T23:38:43.884Z,9.53
2022-10-28T23:41:14.559Z,9.52
2022-10-28T23:43:42.908Z,9.52
2022-10-28T23:46:10.748Z,9.51
2022-10-28T23:48:37.992Z,9.52
2022-10-28T23:51:06.245Z,9.48
2022-10-28T23:53:33.171Z,9.47
2022-10-28T23:56:00.175Z,9.46
2022-10-28T23:58:27.273Z,9.44
